Portada
METAR-TAF:

METAR-TAF

Aeroports :

Pella, Iowa, Estats Units d'Amèrica

Pella Municipal Airport

latitud: 41-24N, longitud: 092-56W, altitud: 270 m

Observació

L'informe es va fer fa 15 hores i 53 minuts, a les 15:15 UTC
Vent 11 kt del Oest/Nord-Oest
Temperatura -1°C
Humitat 93%
Pressió 1015 hPa
Visibilitat: 16.1 km
Cel cobert a una alçada de 800 ft
desconegut

METAR: KPEA 201515Z AUTO 30011KT 10SM UP OVC008 M01/M02 A2996 RMK AO2 P0001 T10101020

Hora: 01:08 (07:08 UTC)


TAF: manca

Observacions i pronòstics meteorològics de més de 4000 aeroports (METAR i TAF).

Les estacions disponibles són els punts grocs i vermells al mapa.

Posi el ratolí al punt desitjat per veure el nom de l'estació.

Feu clic per veure les observacions i els pronòstics meteorològics.

Per canviar el mapa: feu clic els botons verds amb una creu de color negre per apropar; al botó verd amb un guió per allunyar la imatge; o en les fletxes verdes per a mapes adjacents.


METAR-TAF: